createdAt,value
2023-05-10T00:00:57.923Z,100827.13
2023-05-10T00:01:59.858Z,100823.09
2023-05-10T00:03:01.709Z,100823.09
2023-05-10T00:04:03.556Z,100815.44
2023-05-10T00:05:06.316Z,100814.44
2023-05-10T00:06:08.116Z,100814.81
2023-05-10T00:07:11.151Z,100817.25
2023-05-10T00:08:13.014Z,100817.44
2023-05-10T00:09:15.109Z,100821.91
2023-05-10T00:10:17.234Z,100816.06
2023-05-10T00:11:20.958Z,100814.63
2023-05-10T00:12:24.004Z,100812.00
2023-05-10T00:13:26.097Z,100816.63
2023-05-10T00:14:28.070Z,100812.41
2023-05-10T00:15:31.464Z,100808.97
2023-05-10T00:16:33.371Z,100808.97
2023-05-10T00:17:35.658Z,100808.38
2023-05-10T00:18:37.508Z,100812.63
2023-05-10T00:19:39.308Z,100805.13
2023-05-10T00:20:41.020Z,100815.41
2023-05-10T00:21:42.754Z,100798.28
2023-05-10T00:22:44.501Z,100798.28
2023-05-10T00:23:46.302Z,100806.94
2023-05-10T00:24:48.058Z,100798.28
2023-05-10T00:25:49.816Z,100802.72
2023-05-10T00:26:51.574Z,100800.91
2023-05-10T00:27:53.299Z,100797.06
2023-05-10T00:28:55.126Z,100796.06
2023-05-10T00:29:56.911Z,100786.78
2023-05-10T00:30:58.711Z,100784.38
2023-05-10T00:32:00.528Z,100794.66
2023-05-10T00:33:02.442Z,100787.78
2023-05-10T00:34:04.586Z,100781.94
2023-05-10T00:35:06.906Z,100788.19
2023-05-10T00:36:09.199Z,100783.38
2023-05-10T00:37:10.957Z,100792.84
2023-05-10T00:38:12.692Z,100788.63
2023-05-10T00:39:14.437Z,100790.66
2023-05-10T00:40:16.642Z,100791.84
2023-05-10T00:41:18.776Z,100788.63
2023-05-10T00:42:20.516Z,100786.22
2023-05-10T00:43:22.248Z,100789.22
2023-05-10T00:44:24.066Z,100790.03
2023-05-10T00:45:26.048Z,100784.41
2023-05-10T00:46:28.193Z,100787.03
2023-05-10T00:47:30.717Z,100790.84
2023-05-10T00:48:33.038Z,100782.38
2023-05-10T00:49:37.217Z,100788.66
2023-05-10T00:50:40.967Z,100778.75
2023-05-10T00:51:43.880Z,100776.34
2023-05-10T00:52:45.656Z,100780.97
2023-05-10T00:53:47.748Z,100777.75
2023-05-10T00:54:50.489Z,100778.16
2023-05-10T00:55:52.505Z,100779.38
2023-05-10T00:56:54.338Z,100773.72
2023-05-10T00:57:56.689Z,100773.53
2023-05-10T00:58:58.680Z,100775.75
2023-05-10T01:00:00.854Z,100769.69
2023-05-10T01:01:03.211Z,100770.13
2023-05-10T01:02:05.400Z,100771.31
2023-05-10T01:03:07.296Z,100772.31
2023-05-10T01:04:11.926Z,100769.91
2023-05-10T01:05:14.531Z,100770.09
2023-05-10T01:06:16.333Z,100766.88
2023-05-10T01:07:18.213Z,100773.13
2023-05-10T01:08:21.253Z,100768.09
2023-05-10T01:09:24.276Z,100765.66
2023-05-10T01:10:26.374Z,100772.13
2023-05-10T01:11:28.245Z,100769.09
2023-05-10T01:12:30.270Z,100766.88
2023-05-10T01:13:39.082Z,100768.69
2023-05-10T01:14:41.370Z,100771.91
2023-05-10T01:15:43.329Z,100760.81
2023-05-10T01:16:48.334Z,100763.63
2023-05-10T01:17:50.268Z,100764.63
2023-05-10T01:18:53.178Z,100772.72
2023-05-10T01:19:55.051Z,100765.25
2023-05-10T01:21:23.507Z,100766.25
2023-05-10T01:23:12.173Z,100764.44
2023-05-10T01:24:13.799Z,100760.41
2023-05-10T01:25:58.454Z,100762.44
2023-05-10T01:27:59.522Z,100763.63
2023-05-10T01:29:31.984Z,100758.38
2023-05-10T01:31:03.785Z,100765.84
2023-05-10T01:32:23.523Z,100753.75
2023-05-10T01:33:37.517Z,100754.56
2023-05-10T01:35:20.387Z,100751.31
2023-05-10T01:36:54.216Z,100753.53
2023-05-10T01:38:19.016Z,100757.19
2023-05-10T01:39:47.970Z,100756.56
2023-05-10T01:41:10.952Z,100754.53
2023-05-10T01:42:22.754Z,100753.91
2023-05-10T01:43:33.961Z,100753.31
2023-05-10T01:44:50.068Z,100756.16
2023-05-10T01:46:11.787Z,100749.28
2023-05-10T01:47:40.436Z,100745.25
2023-05-10T01:48:52.597Z,100746.47
2023-05-10T01:50:01.057Z,100749.25
2023-05-10T01:51:05.306Z,100753.88
2023-05-10T01:52:16.798Z,100741.78
2023-05-10T01:53:22.452Z,100752.47
2023-05-10T01:54:25.697Z,100745.38
2023-05-10T01:55:46.527Z,100742.56
2023-05-10T01:57:01.143Z,100744.97
2023-05-10T01:58:12.574Z,100743.75
2023-05-10T01:59:20.174Z,100748.59
2023-05-10T02:00:22.902Z,100738.91
2023-05-10T02:01:27.800Z,100744.38
2023-05-10T02:02:37.767Z,100752.41
2023-05-10T02:04:10.034Z,100751.59
2023-05-10T02:05:50.847Z,100749.19
2023-05-10T02:06:56.203Z,100754.00
2023-05-10T02:08:02.303Z,100749.75
2023-05-10T02:09:16.815Z,100747.16
2023-05-10T02:13:20.264Z,100743.94
2023-05-10T02:14:25.297Z,100747.56
2023-05-10T02:15:29.536Z,100747.72
2023-05-10T02:16:32.879Z,100743.09
2023-05-10T02:17:38.450Z,100748.75
2023-05-10T02:18:42.720Z,100742.09
2023-05-10T02:19:46.326Z,100744.91
2023-05-10T02:20:48.814Z,100746.91
2023-05-10T02:21:52.598Z,100746.31
2023-05-10T02:22:58.480Z,100746.91
2023-05-10T02:24:04.979Z,100749.13
2023-05-10T02:25:10.742Z,100739.84
2023-05-10T02:26:14.394Z,100736.63
2023-05-10T02:27:20.804Z,100742.66
2023-05-10T02:28:26.031Z,100744.66
2023-05-10T02:29:30.040Z,100737.81
2023-05-10T02:30:35.168Z,100740.63
2023-05-10T02:31:39.755Z,100739.22
2023-05-10T02:32:43.813Z,100745.44
2023-05-10T02:33:48.316Z,100737.97
2023-05-10T02:34:52.905Z,100735.34
2023-05-10T02:35:56.721Z,100733.16
2023-05-10T02:37:00.724Z,100739.97
2023-05-10T02:38:05.214Z,100734.16
2023-05-10T02:39:13.645Z,100733.94
2023-05-10T02:40:19.211Z,100747.03
2023-05-10T02:41:25.313Z,100738.38
2023-05-10T02:42:30.178Z,100741.38
2023-05-10T02:43:34.829Z,100740.56
2023-05-10T02:44:39.720Z,100738.16
2023-05-10T02:45:44.247Z,100741.56
2023-05-10T02:46:46.890Z,100735.72
2023-05-10T02:47:49.590Z,100733.13
2023-05-10T02:48:51.507Z,100734.28
2023-05-10T02:49:53.273Z,100744.56
2023-05-10T02:51:01.524Z,100736.09
2023-05-10T02:52:08.091Z,100743.75
2023-05-10T02:53:21.871Z,100739.72
2023-05-10T02:54:34.244Z,100733.09
2023-05-10T02:55:46.133Z,100736.50
2023-05-10T02:56:58.048Z,100745.16
2023-05-10T02:58:03.316Z,100740.09
2023-05-10T02:59:05.924Z,100738.69
2023-05-10T03:00:09.952Z,100743.13
2023-05-10T03:01:11.869Z,100735.47
2023-05-10T03:02:14.845Z,100734.84
2023-05-10T03:03:16.655Z,100734.84
2023-05-10T03:04:18.698Z,100745.31
2023-05-10T03:05:21.457Z,100732.63
2023-05-10T03:06:23.324Z,100739.84
2023-05-10T03:07:25.318Z,100742.44
2023-05-10T03:08:30.175Z,100733.78
2023-05-10T03:09:34.065Z,100741.03
2023-05-10T03:10:53.067Z,100736.00
2023-05-10T03:12:24.744Z,100736.22
2023-05-10T03:13:47.469Z,100739.81
2023-05-10T03:15:04.540Z,100736.56
2023-05-10T03:16:21.024Z,100736.78
2023-05-10T03:18:05.629Z,100739.59
2023-05-10T03:19:28.948Z,100733.94
2023-05-10T03:20:44.268Z,100727.88
2023-05-10T03:21:53.487Z,100732.31
2023-05-10T03:23:26.906Z,100733.31
2023-05-10T03:24:29.680Z,100736.91
2023-05-10T03:25:33.300Z,100731.06
2023-05-10T03:26:37.163Z,100733.69
2023-05-10T03:27:44.441Z,100740.53
2023-05-10T03:28:49.457Z,100732.06
2023-05-10T03:29:53.639Z,100730.28
2023-05-10T03:30:57.591Z,100724.84
2023-05-10T03:32:03.308Z,100723.03
2023-05-10T03:33:08.364Z,100730.28
2023-05-10T03:34:10.343Z,100723.44
2023-05-10T03:35:15.203Z,100719.22
2023-05-10T03:36:17.369Z,100722.81
2023-05-10T03:37:19.188Z,100725.03
2023-05-10T03:38:20.945Z,100725.25
2023-05-10T03:39:22.757Z,100722.63
2023-05-10T03:40:26.457Z,100725.25
2023-05-10T03:41:28.238Z,100733.28
2023-05-10T03:42:30.126Z,100737.69
2023-05-10T03:43:31.904Z,100729.84
2023-05-10T03:44:34.320Z,100723.78
2023-05-10T03:45:36.559Z,100720.38
2023-05-10T03:46:38.380Z,100726.41
2023-05-10T03:47:40.280Z,100716.16
2023-05-10T03:48:42.074Z,100715.53
2023-05-10T03:49:44.051Z,100724.19
2023-05-10T03:50:45.888Z,100718.16
2023-05-10T03:51:47.749Z,100718.34
2023-05-10T03:52:49.654Z,100727.81
2023-05-10T03:53:51.639Z,100713.91
2023-05-10T03:54:53.453Z,100719.34
2023-05-10T03:55:55.177Z,100717.94
2023-05-10T03:56:56.892Z,100731.44
2023-05-10T03:57:58.696Z,100712.09
2023-05-10T03:59:00.544Z,100717.94
2023-05-10T04:00:03.743Z,100719.53
2023-05-10T04:01:05.755Z,100710.44
2023-05-10T04:02:07.747Z,100724.75
2023-05-10T04:03:09.662Z,100727.97
2023-05-10T04:04:11.654Z,100729.78
2023-05-10T04:05:13.782Z,100714.50
2023-05-10T04:06:15.653Z,100722.75
2023-05-10T04:07:17.415Z,100720.13
2023-05-10T04:08:19.210Z,100716.72
2023-05-10T04:09:21.038Z,100720.13
2023-05-10T04:10:22.864Z,100714.75
2023-05-10T04:11:25.609Z,100727.63
2023-05-10T04:12:27.357Z,100725.00
2023-05-10T04:13:29.112Z,100718.97
2023-05-10T04:14:30.935Z,100710.13
2023-05-10T04:15:32.708Z,100707.13
2023-05-10T04:16:34.761Z,100712.38
2023-05-10T04:17:36.614Z,100714.78
2023-05-10T04:18:38.473Z,100715.59
2023-05-10T04:19:40.250Z,100713.78
2023-05-10T04:20:42.010Z,100714.59
2023-05-10T04:21:43.783Z,100710.75
2023-05-10T04:22:45.546Z,100718.44
2023-05-10T04:23:47.573Z,100718.22
2023-05-10T04:24:49.356Z,100714.81
2023-05-10T04:25:51.142Z,100719.03
2023-05-10T04:26:52.973Z,100716.63
2023-05-10T04:27:54.710Z,100722.47
2023-05-10T04:28:56.484Z,100711.00
2023-05-10T04:29:58.705Z,100712.00
2023-05-10T04:31:10.182Z,100715.22
2023-05-10T04:32:11.944Z,100716.66
2023-05-10T04:33:13.681Z,100719.28
2023-05-10T04:34:15.606Z,100716.25
2023-05-10T04:35:17.600Z,100705.19
2023-05-10T04:36:19.670Z,100707.59
2023-05-10T04:37:22.351Z,100706.59
2023-05-10T04:38:24.337Z,100707.44
2023-05-10T04:39:26.130Z,100708.03
2023-05-10T04:40:28.103Z,100710.47
2023-05-10T04:41:30.348Z,100715.31
2023-05-10T04:42:32.062Z,100704.66
2023-05-10T04:43:34.167Z,100705.47
2023-05-10T04:44:37.015Z,100696.41
2023-05-10T04:45:38.777Z,100699.81
2023-05-10T04:46:40.677Z,100702.06
2023-05-10T04:47:42.579Z,100704.31
2023-05-10T04:48:44.350Z,100691.81
2023-05-10T04:49:46.247Z,100696.25
2023-05-10T04:50:47.995Z,100701.88
2023-05-10T04:51:49.833Z,100702.53
2023-05-10T04:52:53.171Z,100697.88
2023-05-10T04:54:05.211Z,100706.34
2023-05-10T04:55:10.509Z,100698.13
2023-05-10T04:56:12.252Z,100702.94
2023-05-10T04:57:14.053Z,100704.38
2023-05-10T04:58:16.207Z,100691.91
2023-05-10T04:59:18.163Z,100698.56
2023-05-10T05:00:20.647Z,100696.56
2023-05-10T05:01:24.088Z,100693.53
2023-05-10T05:02:26.017Z,100688.50
2023-05-10T05:03:28.006Z,100705.03
2023-05-10T05:04:31.914Z,100702.81
2023-05-10T05:05:33.745Z,100702.41
2023-05-10T05:06:35.570Z,100698.63
2023-05-10T05:07:38.307Z,100695.59
2023-05-10T05:08:40.231Z,100698.84
2023-05-10T05:09:42.012Z,100699.44
2023-05-10T05:10:43.749Z,100692.97
2023-05-10T05:11:45.550Z,100692.81
2023-05-10T05:12:47.417Z,100698.44
2023-05-10T05:13:49.276Z,100692.19
2023-05-10T05:14:51.036Z,100692.59
2023-05-10T05:15:52.828Z,100695.03
2023-05-10T05:16:54.784Z,100686.56
2023-05-10T05:17:56.620Z,100691.25
2023-05-10T05:18:58.453Z,100686.00
2023-05-10T05:20:00.188Z,100689.03
2023-05-10T05:21:02.010Z,100690.44
2023-05-10T05:22:03.752Z,100688.44
2023-05-10T05:23:05.482Z,100690.44
2023-05-10T05:24:07.917Z,100687.41
2023-05-10T05:25:10.031Z,100696.72
2023-05-10T05:26:11.982Z,100698.31
2023-05-10T05:27:13.717Z,100692.88
2023-05-10T05:28:15.438Z,100688.84
2023-05-10T05:29:17.182Z,100688.44
2023-05-10T05:30:19.212Z,100681.19
2023-05-10T05:31:21.854Z,100683.19
2023-05-10T05:32:25.220Z,100693.28
2023-05-10T05:33:27.035Z,100682.38
2023-05-10T05:34:28.836Z,100690.66
2023-05-10T05:35:30.600Z,100680.75
2023-05-10T05:36:32.560Z,100684.59
2023-05-10T05:37:34.395Z,100680.75
2023-05-10T05:38:36.157Z,100678.75
2023-05-10T05:39:38.224Z,100688.63
2023-05-10T05:40:39.970Z,100677.72
2023-05-10T05:41:41.719Z,100681.78
2023-05-10T05:42:43.543Z,100687.41
2023-05-10T05:43:45.313Z,100681.75
2023-05-10T05:44:47.140Z,100683.94
2023-05-10T05:45:49.099Z,100694.06
2023-05-10T05:46:51.000Z,100682.91
2023-05-10T05:47:53.066Z,100677.88
2023-05-10T05:48:54.892Z,100676.66
2023-05-10T05:49:56.704Z,100674.22
2023-05-10T05:50:59.034Z,100681.47
2023-05-10T05:52:05.395Z,100683.69
2023-05-10T05:53:07.256Z,100676.00
2023-05-10T05:54:09.165Z,100682.44
2023-05-10T05:55:10.931Z,100670.31
2023-05-10T05:56:12.686Z,100673.34
2023-05-10T05:57:14.718Z,100684.03
2023-05-10T05:58:16.489Z,100685.00
2023-05-10T05:59:18.271Z,100678.94
2023-05-10T06:00:20.103Z,100677.91
2023-05-10T06:01:22.341Z,100672.81
2023-05-10T06:02:24.216Z,100676.22
2023-05-10T06:03:26.177Z,100676.41
2023-05-10T06:04:28.071Z,100677.97
2023-05-10T06:05:30.526Z,100683.16
2023-05-10T06:06:33.224Z,100688.97
2023-05-10T06:07:35.175Z,100686.91
2023-05-10T06:08:36.940Z,100682.56
2023-05-10T06:09:38.878Z,100682.28
2023-05-10T06:10:41.062Z,100673.94
2023-05-10T06:11:43.025Z,100685.78
2023-05-10T06:12:44.813Z,100679.06
2023-05-10T06:13:47.994Z,100683.69
2023-05-10T06:14:49.745Z,100685.47
2023-05-10T06:15:51.995Z,100694.09
2023-05-10T06:16:53.826Z,100687.16
2023-05-10T06:17:55.866Z,100690.56
2023-05-10T06:18:57.759Z,100684.59
2023-05-10T06:19:59.566Z,100678.44
2023-05-10T06:21:01.444Z,100683.41
2023-05-10T06:22:03.353Z,100680.69
2023-05-10T06:23:05.453Z,100676.63
2023-05-10T06:24:07.714Z,100677.56
2023-05-10T06:25:10.743Z,100678.84
2023-05-10T06:26:12.631Z,100683.59
2023-05-10T06:27:14.392Z,100684.56
2023-05-10T06:28:16.174Z,100684.69
2023-05-10T06:29:18.420Z,100679.19
2023-05-10T06:30:20.394Z,100676.94
2023-05-10T06:31:22.265Z,100675.44
2023-05-10T06:32:24.147Z,100684.94
2023-05-10T06:33:25.930Z,100673.97
2023-05-10T06:34:27.685Z,100679.28
2023-05-10T06:35:30.191Z,100677.94
2023-05-10T06:36:32.384Z,100678.69
2023-05-10T06:37:35.015Z,100668.50
2023-05-10T06:38:36.956Z,100679.03
2023-05-10T06:39:38.775Z,100670.56
2023-05-10T06:40:43.748Z,100686.44
2023-05-10T06:41:45.546Z,100666.38
2023-05-10T06:42:49.083Z,100681.59
2023-05-10T06:43:50.909Z,100680.72
2023-05-10T06:44:52.771Z,100676.16
2023-05-10T06:45:54.534Z,100672.28
2023-05-10T06:46:56.775Z,100668.25
2023-05-10T06:47:58.564Z,100663.22
2023-05-10T06:49:00.908Z,100685.09
2023-05-10T06:50:02.907Z,100671.13
2023-05-10T06:51:04.948Z,100667.25
2023-05-10T06:52:06.809Z,100673.09
2023-05-10T06:53:08.641Z,100676.66
2023-05-10T06:54:10.456Z,100676.56
2023-05-10T06:55:12.459Z,100697.41
2023-05-10T06:56:14.933Z,100686.63
2023-05-10T06:57:30.535Z,100669.22
2023-05-10T06:58:33.769Z,100681.47
2023-05-10T06:59:35.769Z,100669.47
2023-05-10T07:00:41.339Z,100668.06
2023-05-10T07:01:43.748Z,100675.31
2023-05-10T07:02:46.675Z,100670.53
2023-05-10T07:03:48.568Z,100672.44
2023-05-10T07:04:51.368Z,100677.16
2023-05-10T07:05:53.260Z,100666.38
2023-05-10T07:06:55.123Z,100687.81
2023-05-10T07:07:56.894Z,100680.81
2023-05-10T07:08:58.736Z,100664.28
2023-05-10T07:10:00.609Z,100662.34
2023-05-10T07:11:08.577Z,100666.59
2023-05-10T07:12:13.392Z,100659.28
2023-05-10T07:13:16.758Z,100666.78
2023-05-10T07:14:18.856Z,100669.88
2023-05-10T07:15:21.190Z,100667.31
2023-05-10T07:16:23.274Z,100659.31
2023-05-10T07:17:25.429Z,100661.88
2023-05-10T07:18:27.915Z,100671.13
2023-05-10T07:19:30.469Z,100664.09
2023-05-10T07:20:32.318Z,100649.66
2023-05-10T07:21:34.341Z,100661.56
2023-05-10T07:22:36.146Z,100651.22
2023-05-10T07:23:37.920Z,100652.19
2023-05-10T07:24:39.737Z,100656.75
2023-05-10T07:25:41.630Z,100653.63
2023-05-10T07:26:43.406Z,100653.78
2023-05-10T07:27:45.289Z,100662.34
2023-05-10T07:28:47.827Z,100658.63
2023-05-10T07:29:49.575Z,100650.25
2023-05-10T07:30:51.582Z,100659.56
2023-05-10T07:31:55.409Z,100657.03
2023-05-10T07:33:00.201Z,100664.31
2023-05-10T07:34:01.931Z,100654.94
2023-05-10T07:35:04.294Z,100658.28
2023-05-10T07:36:06.358Z,100654.69
2023-05-10T07:37:08.491Z,100658.66
2023-05-10T07:38:11.991Z,100651.72
2023-05-10T07:39:18.595Z,100660.22
2023-05-10T07:40:29.161Z,100649.50
2023-05-10T07:41:30.922Z,100658.81
2023-05-10T07:42:32.708Z,100656.38
2023-05-10T07:43:34.471Z,100666.84
2023-05-10T07:44:36.275Z,100655.81
2023-05-10T07:45:38.098Z,100660.84
2023-05-10T07:46:39.883Z,100653.50
2023-05-10T07:47:41.783Z,100659.94
2023-05-10T07:48:43.696Z,100661.38
2023-05-10T07:49:45.510Z,100655.97
2023-05-10T07:50:47.237Z,100663.81
2023-05-10T07:51:49.378Z,100662.41
2023-05-10T07:52:51.201Z,100663.88
2023-05-10T07:53:53.108Z,100656.50
2023-05-10T07:54:55.367Z,100653.72
2023-05-10T07:56:00.335Z,100661.72
2023-05-10T07:57:02.268Z,100662.16
2023-05-10T07:58:04.038Z,100656.09
2023-05-10T07:59:07.772Z,100660.53
2023-05-10T08:00:14.361Z,100661.41
2023-05-10T08:01:16.160Z,100657.19
2023-05-10T08:02:18.033Z,100660.75
2023-05-10T08:03:20.019Z,100666.16
2023-05-10T08:04:22.142Z,100660.19
2023-05-10T08:05:23.895Z,100646.25
2023-05-10T08:06:27.431Z,100657.00
2023-05-10T08:07:29.208Z,100656.97
2023-05-10T08:08:31.014Z,100650.44
2023-05-10T08:09:32.964Z,100652.94
2023-05-10T08:10:34.726Z,100652.34
2023-05-10T08:11:36.515Z,100647.13
2023-05-10T08:12:39.354Z,100657.28
2023-05-10T08:13:41.145Z,100653.81
2023-05-10T08:14:42.908Z,100662.84
2023-05-10T08:15:44.725Z,100646.38
2023-05-10T08:16:46.573Z,100649.31
2023-05-10T08:17:48.417Z,100652.75
2023-05-10T08:18:51.693Z,100655.69
2023-05-10T08:19:53.521Z,100655.22
2023-05-10T08:20:55.617Z,100654.69
2023-05-10T08:21:58.094Z,100643.78
2023-05-10T08:22:59.936Z,100652.31
2023-05-10T08:24:01.696Z,100646.69
2023-05-10T08:25:03.627Z,100646.97
2023-05-10T08:26:05.517Z,100650.94
2023-05-10T08:27:07.269Z,100656.03
2023-05-10T08:28:11.283Z,100648.00
2023-05-10T08:29:13.860Z,100645.13
2023-05-10T08:30:15.890Z,100648.84
2023-05-10T08:31:17.766Z,100657.91
2023-05-10T08:32:19.609Z,100654.72
2023-05-10T08:33:21.626Z,100645.38
2023-05-10T08:34:23.579Z,100654.44
2023-05-10T08:35:25.675Z,100653.66
2023-05-10T08:36:28.622Z,100658.16
2023-05-10T08:37:31.627Z,100645.91
2023-05-10T08:38:33.573Z,100648.84
2023-05-10T08:39:36.640Z,100649.28
2023-05-10T08:40:39.130Z,100650.81
2023-05-10T08:41:44.680Z,100658.53
2023-05-10T08:43:03.538Z,100664.75
2023-05-10T08:44:07.354Z,100649.63
2023-05-10T08:45:11.567Z,100660.56
2023-05-10T08:46:19.053Z,100650.44
2023-05-10T08:47:21.526Z,100652.28
2023-05-10T08:48:25.983Z,100657.59
2023-05-10T08:49:32.609Z,100652.53
2023-05-10T08:50:38.650Z,100653.06
2023-05-10T08:51:50.720Z,100658.09
2023-05-10T08:52:58.547Z,100668.94
2023-05-10T08:54:01.443Z,100668.94
2023-05-10T08:55:04.146Z,100651.09
2023-05-10T08:56:07.142Z,100663.03
2023-05-10T08:57:09.290Z,100665.69
2023-05-10T08:58:11.519Z,100661.44
2023-05-10T08:59:14.933Z,100660.16
2023-05-10T09:00:19.137Z,100660.69
2023-05-10T09:01:22.800Z,100664.47
2023-05-10T09:02:24.992Z,100660.81
2023-05-10T09:03:27.476Z,100657.34
2023-05-10T09:04:30.413Z,100653.84
2023-05-10T09:05:32.814Z,100661.06
2023-05-10T09:06:35.826Z,100660.53
2023-05-10T09:07:38.059Z,100659.22
2023-05-10T09:08:42.577Z,100652.03
2023-05-10T09:09:46.817Z,100658.16
2023-05-10T09:10:49.854Z,100663.97
2023-05-10T09:11:53.396Z,100659.91
2023-05-10T09:12:59.367Z,100656.75
2023-05-10T09:14:02.637Z,100658.16
2023-05-10T09:15:07.983Z,100664.28
2023-05-10T09:16:21.226Z,100652.56
2023-05-10T09:17:26.845Z,100668.25
2023-05-10T09:18:28.784Z,100658.16
2023-05-10T09:19:30.739Z,100659.44
2023-05-10T09:20:32.676Z,100659.72
2023-05-10T09:21:39.929Z,100654.69
2023-05-10T09:22:41.812Z,100659.50
2023-05-10T09:23:48.516Z,100681.31
2023-05-10T09:25:15.675Z,100659.50
2023-05-10T09:26:18.334Z,100660.28
2023-05-10T09:27:28.092Z,100659.72
2023-05-10T09:28:50.718Z,100661.03
2023-05-10T09:29:55.310Z,100663.16
2023-05-10T09:30:57.243Z,100655.97
2023-05-10T09:31:59.094Z,100657.03
2023-05-10T09:33:01.761Z,100668.22
2023-05-10T09:34:03.921Z,100659.72
2023-05-10T09:35:18.494Z,100678.91
2023-05-10T09:36:20.491Z,100671.41
2023-05-10T09:37:31.159Z,100668.53
2023-05-10T09:38:54.974Z,100659.47
2023-05-10T09:39:56.811Z,100665.09
2023-05-10T09:40:58.699Z,100669.59
2023-05-10T09:42:10.129Z,100670.94
2023-05-10T09:43:11.997Z,100658.16
2023-05-10T09:44:19.643Z,100659.47
2023-05-10T09:45:23.491Z,100665.03
2023-05-10T09:46:25.407Z,100656.44
2023-05-10T09:47:27.945Z,100661.97
2023-05-10T09:48:30.037Z,100672.94
2023-05-10T09:49:32.184Z,100665.50
2023-05-10T09:50:35.094Z,100657.81
2023-05-10T09:51:37.107Z,100670.09
2023-05-10T09:53:01.500Z,100668.78
2023-05-10T09:54:17.166Z,100666.69
2023-05-10T09:55:25.608Z,100667.69
2023-05-10T09:56:41.489Z,100666.53
2023-05-10T09:57:43.363Z,100665.63
2023-05-10T09:58:45.209Z,100670.66
2023-05-10T09:59:47.960Z,100674.13
2023-05-10T10:00:52.448Z,100673.03
2023-05-10T10:02:03.691Z,100677.06
2023-05-10T10:03:06.399Z,100692.28
2023-05-10T10:04:10.824Z,100684.09
2023-05-10T10:05:12.998Z,100671.91
2023-05-10T10:06:29.658Z,100667.41
2023-05-10T10:07:33.765Z,100674.09
2023-05-10T10:08:36.216Z,100666.91
2023-05-10T10:09:38.260Z,100668.00
2023-05-10T10:10:41.789Z,100663.47
2023-05-10T10:11:43.656Z,100665.34
2023-05-10T10:12:45.793Z,100665.34
2023-05-10T10:13:47.702Z,100658.41
2023-05-10T10:14:51.251Z,100656.00
2023-05-10T10:15:55.806Z,100663.44
2023-05-10T10:17:06.706Z,100661.84
2023-05-10T10:18:16.193Z,100662.63
2023-05-10T10:19:21.849Z,100668.25
2023-05-10T10:20:24.980Z,100664.25
2023-05-10T10:21:27.417Z,100655.72
2023-05-10T10:22:29.178Z,100647.97
2023-05-10T10:23:31.092Z,100666.53
2023-05-10T10:24:33.052Z,100660.88
2023-05-10T10:25:35.136Z,100662.25
2023-05-10T10:26:43.557Z,100659.63
2023-05-10T10:28:28.431Z,100658.81
2023-05-10T10:30:02.322Z,100653.97
2023-05-10T10:31:53.346Z,100656.84
2023-05-10T10:33:07.948Z,100659.19
2023-05-10T10:34:30.451Z,100662.63
2023-05-10T10:35:33.321Z,100656.00
2023-05-10T10:36:48.564Z,100657.94
2023-05-10T10:37:52.377Z,100650.03
2023-05-10T10:39:09.571Z,100656.94
2023-05-10T10:40:34.594Z,100652.06
2023-05-10T10:41:45.270Z,100658.69
2023-05-10T10:42:50.752Z,100659.75
2023-05-10T10:44:37.307Z,100663.38
2023-05-10T10:45:42.148Z,100661.41
2023-05-10T10:47:14.892Z,100662.09
2023-05-10T10:48:24.478Z,100658.91
2023-05-10T10:49:26.675Z,100666.16
2023-05-10T10:50:28.501Z,100662.50
2023-05-10T10:51:32.157Z,100663.72
2023-05-10T10:52:47.226Z,100649.41
2023-05-10T10:53:50.002Z,100656.41
2023-05-10T10:55:07.948Z,100659.91
2023-05-10T10:56:16.166Z,100651.94
2023-05-10T10:57:22.758Z,100649.75
2023-05-10T10:58:37.108Z,100652.41
2023-05-10T10:59:44.886Z,100648.09
2023-05-10T11:00:46.656Z,100651.78
2023-05-10T11:01:53.218Z,100662.16
2023-05-10T11:03:08.920Z,100664.38
2023-05-10T11:04:10.623Z,100645.81
2023-05-10T11:05:49.099Z,100651.47
2023-05-10T11:06:50.974Z,100656.78
2023-05-10T11:07:59.554Z,100657.88
2023-05-10T11:09:10.103Z,100660.00
2023-05-10T11:10:12.450Z,100652.28
2023-05-10T11:11:16.218Z,100661.09
2023-05-10T11:12:18.016Z,100657.34
2023-05-10T11:13:42.334Z,100656.28
2023-05-10T11:14:44.289Z,100656.28
2023-05-10T11:15:52.237Z,100645.66
2023-05-10T11:16:54.246Z,100652.31
2023-05-10T11:17:56.904Z,100646.69
2023-05-10T11:19:10.494Z,100647.25
2023-05-10T11:20:16.320Z,100648.56
2023-05-10T11:21:18.390Z,100646.72
2023-05-10T11:22:20.128Z,100650.97
2023-05-10T11:23:22.495Z,100646.69
2023-05-10T11:24:29.060Z,100648.03
2023-05-10T11:25:30.861Z,100644.84
2023-05-10T11:26:36.511Z,100645.34
2023-05-10T11:27:39.257Z,100647.50
2023-05-10T11:28:50.684Z,100652.03
2023-05-10T11:29:53.314Z,100642.19
2023-05-10T11:30:56.689Z,100635.50
2023-05-10T11:32:00.768Z,100642.69
2023-05-10T11:33:02.728Z,100658.66
2023-05-10T11:34:04.560Z,100661.88
2023-05-10T11:35:13.356Z,100645.63
2023-05-10T11:36:29.814Z,100640.59
2023-05-10T11:37:35.055Z,100643.53
2023-05-10T11:38:36.844Z,100641.13
2023-05-10T11:39:41.274Z,100641.94
2023-05-10T11:40:44.105Z,100640.03
2023-05-10T11:41:50.415Z,100646.94
2023-05-10T11:42:52.316Z,100661.31
2023-05-10T11:43:56.502Z,100649.59
2023-05-10T11:44:58.308Z,100649.38
2023-05-10T11:46:00.438Z,100644.84
2023-05-10T11:47:03.266Z,100644.84
2023-05-10T11:48:05.764Z,100640.59
2023-05-10T11:49:08.934Z,100642.69
2023-05-10T11:50:12.579Z,100646.69
2023-05-10T11:51:14.328Z,100646.41
2023-05-10T11:52:16.109Z,100640.78
2023-05-10T11:53:17.854Z,100640.56
2023-05-10T11:54:19.594Z,100645.59
2023-05-10T11:55:21.647Z,100645.63
2023-05-10T11:56:24.393Z,100644.81
2023-05-10T11:57:29.441Z,100653.88
2023-05-10T11:58:33.345Z,100644.28
2023-05-10T11:59:35.115Z,100641.63
2023-05-10T12:00:36.980Z,100639.72
2023-05-10T12:01:38.932Z,100646.09
2023-05-10T12:02:41.358Z,100657.31
2023-05-10T12:03:43.427Z,100660.00
2023-05-10T12:04:45.776Z,100644.28
2023-05-10T12:05:47.762Z,100642.16
2023-05-10T12:06:49.703Z,100654.94
2023-05-10T12:07:51.408Z,100654.41
2023-05-10T12:08:54.510Z,100652.81
2023-05-10T12:10:20.197Z,100657.88
2023-05-10T12:11:28.273Z,100655.75
2023-05-10T12:12:45.682Z,100647.50
2023-05-10T12:13:47.758Z,100645.91
2023-05-10T12:14:52.098Z,100650.44
2023-05-10T12:15:54.015Z,100650.16
2023-05-10T12:16:58.485Z,100645.34
2023-05-10T12:18:00.954Z,100653.09
2023-05-10T12:19:03.190Z,100654.16
2023-05-10T12:20:28.432Z,100650.13
2023-05-10T12:21:33.517Z,100644.53
2023-05-10T12:22:35.859Z,100644.81
2023-05-10T12:23:37.766Z,100657.31
2023-05-10T12:24:39.725Z,100652.81
2023-05-10T12:25:41.569Z,100649.63
2023-05-10T12:26:43.563Z,100656.25